Time;durP1;ratioP1;P1;durP2;ratioP2;P2;SDS_P1;SDS_P2;PMS_P1;PMS_P2;Temp;Humidity;BMP_temperature;BMP_pressure;BME280_temperature;BME280_humidity;BME280_pressure;Samples;Min_cycle;Max_cycle;Signal;HPM_P1;HPM_P2
2023/04/06 00:02:12;;;;;;;11.10;8.38;;;;;;;;;;5077592;28;20215;-65
2023/04/06 00:04:40;;;;;;;10.60;8.25;;;;;;;;;;5092360;28;20211;-66
2023/04/06 00:07:09;;;;;;;10.50;8.02;;;;;;;;;;5090724;28;20206;-66
2023/04/06 00:09:38;;;;;;;9.50;7.70;;;;;;;;;;5073554;28;20291;-65
2023/04/06 00:12:07;;;;;;;9.57;8.63;;;;;;;;;;5091179;28;20199;-66
2023/04/06 00:14:35;;;;;;;8.25;7.30;;;;;;;;;;5076070;28;20204;-66
2023/04/06 00:17:06;;;;;;;10.68;7.43;;;;;;;;;;5090457;28;20641;-66
2023/04/06 00:19:35;;;;;;;8.57;7.78;;;;;;;;;;5082100;28;20697;-65
2023/04/06 00:22:03;;;;;;;9.05;7.75;;;;;;;;;;5072832;28;20225;-66
2023/04/06 00:24:31;;;;;;;10.65;8.30;;;;;;;;;;5090398;28;20207;-66
2023/04/06 00:27:01;;;;;;;11.40;8.02;;;;;;;;;;5072692;28;20200;-67
2023/04/06 00:29:29;;;;;;;9.55;8.35;;;;;;;;;;5078823;28;20210;-67
2023/04/06 00:31:58;;;;;;;13.50;8.70;;;;;;;;;;5071218;28;20605;-66
2023/04/06 00:34:26;;;;;;;38.67;16.15;;;;;;;;;;5073241;28;20199;-66
2023/04/06 00:36:54;;;;;;;42.95;16.88;;;;;;;;;;5091786;28;20202;-66
2023/04/06 00:39:23;;;;;;;39.47;16.85;;;;;;;;;;5092545;28;20207;-66
2023/04/06 00:41:52;;;;;;;47.90;16.92;;;;;;;;;;5091707;28;20207;-67
2023/04/06 00:44:23;;;;;;;19.73;10.15;;;;;;;;;;5093421;28;20217;-66
2023/04/06 00:46:51;;;;;;;21.50;9.57;;;;;;;;;;5091963;28;20184;-66
2023/04/06 00:49:20;;;;;;;20.23;10.00;;;;;;;;;;5074679;28;20210;-66
2023/04/06 00:51:48;;;;;;;26.15;11.60;;;;;;;;;;5091772;28;20206;-66
2023/04/06 00:54:17;;;;;;;36.83;12.32;;;;;;;;;;5074996;28;20195;-66
2023/04/06 00:56:46;;;;;;;19.00;9.20;;;;;;;;;;5073759;28;20256;-66
2023/04/06 00:59:14;;;;;;;16.67;9.02;;;;;;;;;;5074313;28;20233;-66
2023/04/06 01:01:44;;;;;;;12.23;8.82;;;;;;;;;;5071427;28;20213;-67
2023/04/06 01:04:28;;;;;;;15.00;8.40;;;;;;;;;;5073016;28;20524;-68
2023/04/06 01:06:57;;;;;;;10.70;7.90;;;;;;;;;;5072221;28;20588;-68
2023/04/06 01:09:32;;;;;;;11.80;8.38;;;;;;;;;;5073903;28;20226;-68
2023/04/06 01:12:05;;;;;;;11.93;7.82;;;;;;;;;;5060005;28;20192;-67
2023/04/06 01:14:36;;;;;;;9.95;8.13;;;;;;;;;;5066843;28;20199;-67
2023/04/06 01:17:06;;;;;;;10.60;8.38;;;;;;;;;;5066197;28;20210;-67
2023/04/06 01:19:35;;;;;;;8.65;7.40;;;;;;;;;;5054658;28;20220;-67
2023/04/06 01:22:04;;;;;;;9.65;7.90;;;;;;;;;;5053758;28;20222;-68
2023/04/06 01:24:34;;;;;;;8.88;7.72;;;;;;;;;;5073105;28;20192;-67
2023/04/06 01:27:16;;;;;;;8.35;6.97;;;;;;;;;;5053318;28;20200;-67
2023/04/06 01:30:05;;;;;;;11.20;8.15;;;;;;;;;;5051197;28;20205;-68
2023/04/06 01:32:52;;;;;;;9.43;7.40;;;;;;;;;;5066070;28;20188;-67
2023/04/06 01:35:36;;;;;;;11.65;8.30;;;;;;;;;;5071401;28;20191;-68
2023/04/06 01:38:15;;;;;;;8.05;7.18;;;;;;;;;;5068576;28;20646;-67
2023/04/06 01:40:44;;;;;;;10.80;8.02;;;;;;;;;;5053324;28;20211;-68
2023/04/06 01:43:13;;;;;;;9.82;7.68;;;;;;;;;;5071118;28;20215;-68
2023/04/06 01:46:00;;;;;;;9.85;7.90;;;;;;;;;;5071785;28;20271;-68
2023/04/06 01:48:34;;;;;;;9.48;6.65;;;;;;;;;;5057434;28;20607;-69
2023/04/06 01:51:10;;;;;;;9.65;8.00;;;;;;;;;;5067768;28;20545;-67
2023/04/06 01:53:48;;;;;;;10.10;7.68;;;;;;;;;;5053418;28;20184;-67
2023/04/06 01:56:18;;;;;;;12.80;7.68;;;;;;;;;;5076280;28;20196;-68
2023/04/06 01:58:56;;;;;;;9.65;8.07;;;;;;;;;;5072997;28;20191;-68
2023/04/06 02:01:25;;;;;;;7.97;7.18;;;;;;;;;;5056131;28;20207;-67
2023/04/06 02:03:57;;;;;;;10.93;7.15;;;;;;;;;;5057589;28;20200;-68
2023/04/06 02:06:26;;;;;;;9.40;7.75;;;;;;;;;;5068801;28;20203;-67
2023/04/06 02:08:55;;;;;;;12.70;8.88;;;;;;;;;;5072392;28;20215;-67
2023/04/06 02:11:24;;;;;;;8.93;7.45;;;;;;;;;;5072969;28;20183;-68
2023/04/06 02:13:57;;;;;;;9.68;7.75;;;;;;;;;;5072499;28;20547;-66
2023/04/06 02:16:30;;;;;;;8.23;7.15;;;;;;;;;;5069959;28;20192;-68
2023/04/06 02:18:58;;;;;;;10.05;8.18;;;;;;;;;;5055739;28;20646;-66
2023/04/06 02:21:27;;;;;;;9.77;8.00;;;;;;;;;;5090841;28;20213;-68
2023/04/06 02:23:55;;;;;;;14.50;8.32;;;;;;;;;;5074665;28;20219;-68
2023/04/06 02:26:25;;;;;;;13.80;7.70;;;;;;;;;;5090172;28;20203;-68
2023/04/06 02:28:53;;;;;;;8.73;7.80;;;;;;;;;;5044446;28;20206;-68
2023/04/06 02:31:21;;;;;;;11.27;7.75;;;;;;;;;;5070535;28;20200;-65
2023/04/06 02:33:51;;;;;;;11.90;9.40;;;;;;;;;;5054929;28;20192;-67
2023/04/06 02:36:19;;;;;;;11.80;8.77;;;;;;;;;;5060399;28;20214;-68
2023/04/06 02:38:48;;;;;;;29.38;14.85;;;;;;;;;;5073859;28;20200;-69
2023/04/06 02:41:16;;;;;;;13.95;9.20;;;;;;;;;;5056015;28;20210;-68
2023/04/06 02:43:46;;;;;;;18.88;11.35;;;;;;;;;;5073900;28;20220;-68
2023/04/06 02:46:30;;;;;;;13.80;8.88;;;;;;;;;;5055575;28;20585;-68
2023/04/06 02:49:00;;;;;;;29.98;15.15;;;;;;;;;;5078991;28;20742;-67
2023/04/06 02:51:29;;;;;;;76.97;40.85;;;;;;;;;;5075260;28;20191;-69
2023/04/06 02:54:08;;;;;;;71.47;40.78;;;;;;;;;;5060658;28;20206;-68
2023/04/06 02:56:36;;;;;;;10.90;8.40;;;;;;;;;;5071091;28;20267;-68
2023/04/06 02:59:06;;;;;;;9.65;7.65;;;;;;;;;;5093316;28;20226;-68
2023/04/06 03:01:35;;;;;;;13.02;8.63;;;;;;;;;;5079554;28;20218;-68
2023/04/06 03:04:06;;;;;;;19.63;13.18;;;;;;;;;;5054880;28;20571;-69
2023/04/06 03:06:34;;;;;;;37.10;24.00;;;;;;;;;;5073379;28;20206;-69
2023/04/06 03:09:13;;;;;;;15.10;11.68;;;;;;;;;;5055814;28;20235;-69
2023/04/06 03:11:43;;;;;;;21.20;13.40;;;;;;;;;;5062455;28;20187;-68
2023/04/06 03:14:13;;;;;;;12.15;9.10;;;;;;;;;;5075562;28;20213;-69
2023/04/06 03:16:42;;;;;;;10.50;8.25;;;;;;;;;;5093209;28;20211;-68
2023/04/06 03:19:10;;;;;;;11.35;8.43;;;;;;;;;;5074640;28;20279;-68
2023/04/06 03:21:39;;;;;;;12.65;9.63;;;;;;;;;;5074413;28;20218;-68
2023/04/06 03:24:07;;;;;;;10.88;8.82;;;;;;;;;;5073333;28;20241;-69
2023/04/06 03:26:36;;;;;;;14.50;9.70;;;;;;;;;;5081067;28;20206;-67
2023/04/06 03:29:08;;;;;;;11.18;9.18;;;;;;;;;;5056178;28;20184;-69
2023/04/06 03:31:38;;;;;;;15.35;10.40;;;;;;;;;;5055306;28;20200;-69
2023/04/06 03:34:10;;;;;;;15.65;11.70;;;;;;;;;;5066425;28;20559;-69
2023/04/06 03:36:38;;;;;;;20.77;12.23;;;;;;;;;;5092669;28;20256;-68
2023/04/06 03:39:06;;;;;;;17.80;12.82;;;;;;;;;;5073517;28;20192;-69
2023/04/06 03:41:38;;;;;;;17.33;13.13;;;;;;;;;;5053966;28;20188;-68
2023/04/06 03:44:14;;;;;;;15.55;10.85;;;;;;;;;;5072525;28;20222;-67
2023/04/06 03:46:44;;;;;;;11.73;9.25;;;;;;;;;;5053440;28;20208;-68
2023/04/06 03:49:13;;;;;;;14.45;8.95;;;;;;;;;;5072717;28;20200;-69
2023/04/06 03:51:44;;;;;;;11.75;8.43;;;;;;;;;;5053560;28;20249;-68
2023/04/06 03:54:12;;;;;;;11.00;8.80;;;;;;;;;;5062944;28;20199;-68
2023/04/06 03:56:41;;;;;;;14.88;9.43;;;;;;;;;;5074189;28;20610;-68
2023/04/06 03:59:09;;;;;;;17.40;9.32;;;;;;;;;;5080554;28;20196;-69
2023/04/06 04:01:39;;;;;;;20.98;9.00;;;;;;;;;;5090938;28;20657;-69
2023/04/06 04:04:08;;;;;;;10.20;8.07;;;;;;;;;;5080308;28;20216;-68
2023/04/06 04:06:37;;;;;;;12.40;7.55;;;;;;;;;;5086510;28;20531;-68
2023/04/06 04:09:05;;;;;;;8.20;6.57;;;;;;;;;;5071480;28;20674;-68
2023/04/06 04:11:34;;;;;;;11.40;8.35;;;;;;;;;;5079575;28;20574;-67
2023/04/06 04:14:03;;;;;;;8.27;7.20;;;;;;;;;;5084868;28;20662;-66
2023/04/06 04:16:31;;;;;;;10.57;7.80;;;;;;;;;;5060818;28;20240;-67
2023/04/06 04:19:00;;;;;;;10.23;7.72;;;;;;;;;;5089939;28;20200;-67
2023/04/06 04:21:31;;;;;;;9.48;7.93;;;;;;;;;;5069907;28;20200;-67
2023/04/06 04:24:02;;;;;;;11.35;8.60;;;;;;;;;;5053666;28;20204;-66
2023/04/06 04:26:30;;;;;;;9.50;8.20;;;;;;;;;;5054646;28;20570;-67
2023/04/06 04:28:59;;;;;;;11.48;8.68;;;;;;;;;;5079398;28;20654;-67
2023/04/06 04:31:27;;;;;;;9.13;7.63;;;;;;;;;;5080509;28;20200;-67
2023/04/06 04:34:01;;;;;;;10.82;7.72;;;;;;;;;;5058168;28;20635;-69
2023/04/06 04:36:34;;;;;;;8.95;7.18;;;;;;;;;;5074937;28;20198;-67
2023/04/06 04:39:06;;;;;;;9.02;6.95;;;;;;;;;;5092290;28;20202;-67
2023/04/06 04:41:39;;;;;;;9.32;6.90;;;;;;;;;;5074670;28;20188;-68
2023/04/06 04:44:11;;;;;;;8.75;7.63;;;;;;;;;;5074266;28;20629;-66
2023/04/06 04:46:41;;;;;;;9.10;7.43;;;;;;;;;;5074100;28;20679;-68
2023/04/06 04:49:10;;;;;;;9.82;7.78;;;;;;;;;;5069180;28;20295;-67
2023/04/06 04:51:40;;;;;;;12.32;7.32;;;;;;;;;;5089645;28;20210;-68
2023/04/06 04:54:13;;;;;;;11.68;8.40;;;;;;;;;;5091489;28;20179;-67
2023/04/06 04:56:42;;;;;;;8.82;7.75;;;;;;;;;;5080891;28;20261;-68
2023/04/06 04:59:26;;;;;;;12.32;8.48;;;;;;;;;;5067772;28;20188;-68
2023/04/06 05:02:02;;;;;;;9.25;7.50;;;;;;;;;;5072441;28;20203;-67
2023/04/06 05:04:40;;;;;;;15.05;8.52;;;;;;;;;;5055951;28;20203;-67
2023/04/06 05:07:12;;;;;;;12.48;8.20;;;;;;;;;;5038781;28;20617;-68
2023/04/06 05:09:42;;;;;;;10.90;7.90;;;;;;;;;;5064067;28;20230;-67
2023/04/06 05:12:11;;;;;;;12.63;7.90;;;;;;;;;;5057712;28;20226;-68
2023/04/06 05:14:50;;;;;;;10.82;9.13;;;;;;;;;;5042204;28;20188;-67
2023/04/06 05:17:20;;;;;;;11.45;8.60;;;;;;;;;;5082221;28;20195;-68
2023/04/06 05:19:48;;;;;;;16.40;9.38;;;;;;;;;;5059154;28;20215;-66
2023/04/06 05:22:25;;;;;;;10.30;6.93;;;;;;;;;;5075405;28;20256;-68
2023/04/06 05:25:03;;;;;;;11.50;8.88;;;;;;;;;;5059637;28;20204;-68
2023/04/06 05:27:33;;;;;;;10.63;8.10;;;;;;;;;;5068288;28;20199;-68
2023/04/06 05:30:06;;;;;;;12.05;8.20;;;;;;;;;;5074869;28;20193;-67
2023/04/06 05:32:42;;;;;;;10.02;7.25;;;;;;;;;;5073774;28;20251;-67
2023/04/06 05:35:11;;;;;;;14.52;9.48;;;;;;;;;;5081662;28;20609;-69
2023/04/06 05:37:41;;;;;;;17.75;8.65;;;;;;;;;;5071929;28;20251;-68
2023/04/06 05:40:11;;;;;;;12.80;7.78;;;;;;;;;;5067944;28;20202;-68
2023/04/06 05:42:39;;;;;;;17.02;7.75;;;;;;;;;;5072070;28;20211;-68
2023/04/06 05:45:08;;;;;;;10.82;8.05;;;;;;;;;;5084124;28;20206;-68
2023/04/06 05:47:37;;;;;;;37.80;10.70;;;;;;;;;;5079515;28;20256;-68
2023/04/06 05:50:18;;;;;;;15.18;9.35;;;;;;;;;;5080722;28;20649;-69
2023/04/06 05:52:48;;;;;;;12.55;9.02;;;;;;;;;;5071170;28;20207;-68
2023/04/06 05:55:20;;;;;;;18.50;8.85;;;;;;;;;;5055377;28;20188;-69
2023/04/06 05:57:57;;;;;;;10.00;7.15;;;;;;;;;;5080021;28;20581;-67
2023/04/06 06:00:26;;;;;;;20.15;11.05;;;;;;;;;;5096836;28;20210;-67
2023/04/06 06:03:05;;;;;;;15.38;10.15;;;;;;;;;;5078417;28;20792;-66
2023/04/06 06:05:35;;;;;;;18.48;9.55;;;;;;;;;;5084194;28;20207;-69
2023/04/06 06:08:13;;;;;;;12.27;8.35;;;;;;;;;;5083731;28;20386;-69
2023/04/06 06:10:42;;;;;;;19.95;10.90;;;;;;;;;;5077296;28;20798;-67
2023/04/06 06:13:13;;;;;;;15.52;9.32;;;;;;;;;;5077238;28;20198;-69
2023/04/06 06:15:41;;;;;;;12.65;9.35;;;;;;;;;;5087683;28;20195;-68
2023/04/06 06:18:10;;;;;;;14.63;9.98;;;;;;;;;;5066732;28;20513;-69
2023/04/06 06:20:39;;;;;;;14.65;9.55;;;;;;;;;;5065035;28;20275;-69
2023/04/06 06:23:08;;;;;;;17.42;10.45;;;;;;;;;;5064221;28;20429;-68
2023/04/06 06:25:38;;;;;;;12.40;8.50;;;;;;;;;;5072868;28;20221;-69
2023/04/06 06:28:07;;;;;;;16.17;8.75;;;;;;;;;;5084312;28;20717;-67
2023/04/06 06:30:35;;;;;;;12.70;8.77;;;;;;;;;;5067970;28;20232;-68
2023/04/06 06:33:04;;;;;;;14.15;9.38;;;;;;;;;;5067896;28;20552;-68
2023/04/06 06:35:32;;;;;;;13.35;8.38;;;;;;;;;;5075787;28;20244;-67
2023/04/06 06:38:04;;;;;;;13.82;9.02;;;;;;;;;;5218815;22;20732;-67
2023/04/06 06:40:34;;;;;;;11.50;9.13;;;;;;;;;;5083735;28;20251;-67
2023/04/06 06:46:06;;;;;;;14.38;10.48;;;;;;;;;;5589570;23;20215;-67
2023/04/06 06:48:35;;;;;;;14.95;10.60;;;;;;;;;;5022102;23;20252;-67
2023/04/06 06:51:03;;;;;;;15.55;10.55;;;;;;;;;;4982002;28;20639;-65
2023/04/06 06:53:31;;;;;;;16.80;11.25;;;;;;;;;;4960632;28;20654;-66
2023/04/06 06:56:00;;;;;;;18.67;13.70;;;;;;;;;;4963210;28;20198;-66
2023/04/06 06:58:30;;;;;;;23.77;14.60;;;;;;;;;;4948787;28;20209;-66
2023/04/06 07:01:00;;;;;;;27.85;17.95;;;;;;;;;;4955910;28;20204;-65
2023/04/06 07:03:31;;;;;;;27.77;15.13;;;;;;;;;;4944567;29;20208;-66
2023/04/06 07:06:00;;;;;;;24.15;16.65;;;;;;;;;;4960153;29;20216;-67
2023/04/06 07:08:28;;;;;;;36.35;17.67;;;;;;;;;;4962829;29;20291;-67
2023/04/06 07:10:56;;;;;;;30.85;18.67;;;;;;;;;;4964721;29;20255;-66
2023/04/06 07:13:27;;;;;;;29.88;17.60;;;;;;;;;;4963621;29;20295;-66
2023/04/06 07:15:57;;;;;;;30.23;19.35;;;;;;;;;;4942672;29;20191;-66
2023/04/06 07:18:26;;;;;;;34.45;19.10;;;;;;;;;;4958110;29;20299;-66
2023/04/06 07:20:55;;;;;;;32.17;18.05;;;;;;;;;;4962459;28;20308;-66
2023/04/06 07:23:24;;;;;;;28.77;17.35;;;;;;;;;;4959053;29;20334;-67
2023/04/06 07:25:53;;;;;;;24.73;16.98;;;;;;;;;;4954951;29;20267;-69
2023/04/06 07:28:22;;;;;;;27.85;16.17;;;;;;;;;;4952970;29;20296;-65
2023/04/06 07:30:50;;;;;;;28.10;15.40;;;;;;;;;;4946976;29;20307;-68
2023/04/06 07:33:19;;;;;;;23.00;15.13;;;;;;;;;;4957889;28;20216;-68
2023/04/06 07:35:48;;;;;;;19.52;14.40;;;;;;;;;;4942107;29;20262;-69
2023/04/06 07:38:18;;;;;;;22.70;14.55;;;;;;;;;;4939746;29;20334;-68
2023/04/06 07:40:47;;;;;;;19.15;13.20;;;;;;;;;;4964406;29;20296;-67
2023/04/06 07:43:15;;;;;;;22.65;13.65;;;;;;;;;;4942333;29;20291;-69
2023/04/06 07:45:43;;;;;;;20.25;11.60;;;;;;;;;;4925891;29;20230;-69
2023/04/06 07:48:12;;;;;;;17.40;12.07;;;;;;;;;;4936585;29;20624;-68
2023/04/06 07:50:42;;;;;;;16.67;11.70;;;;;;;;;;4929130;29;20275;-68
2023/04/06 07:53:11;;;;;;;19.30;12.43;;;;;;;;;;4933593;29;20714;-70
2023/04/06 07:55:42;;;;;;;11.00;9.85;;;;;;;;;;4937827;29;20214;-71
2023/04/06 07:58:10;;;;;;;12.45;10.07;;;;;;;;;;4955058;29;20621;-70
2023/04/06 08:00:39;;;;;;;13.30;11.15;;;;;;;;;;4919071;29;20205;-68
2023/04/06 08:03:07;;;;;;;14.68;10.10;;;;;;;;;;4944971;29;20212;-68
2023/04/06 08:05:35;;;;;;;11.00;9.88;;;;;;;;;;4937240;29;20216;-70
2023/04/06 08:08:04;;;;;;;12.75;10.63;;;;;;;;;;4938836;29;20651;-69
2023/04/06 08:10:34;;;;;;;11.18;10.18;;;;;;;;;;4955503;29;20659;-68
2023/04/06 08:13:03;;;;;;;10.18;9.38;;;;;;;;;;4949479;29;20230;-68
2023/04/06 08:15:32;;;;;;;13.45;10.80;;;;;;;;;;4946646;29;20669;-68
2023/04/06 08:18:00;;;;;;;16.10;10.13;;;;;;;;;;4954224;29;20214;-69
2023/04/06 08:20:28;;;;;;;11.80;10.80;;;;;;;;;;4947726;28;20278;-68
2023/04/06 08:22:57;;;;;;;11.65;10.75;;;;;;;;;;4955107;29;20207;-67
2023/04/06 08:25:25;;;;;;;11.35;10.10;;;;;;;;;;4954658;29;20212;-68
2023/04/06 08:27:54;;;;;;;14.93;10.73;;;;;;;;;;4954450;29;20206;-67
2023/04/06 08:30:24;;;;;;;17.45;11.52;;;;;;;;;;4953175;28;20262;-67
2023/04/06 08:32:52;;;;;;;20.33;15.32;;;;;;;;;;4952943;29;20200;-66
2023/04/06 08:35:20;;;;;;;12.70;11.50;;;;;;;;;;4955191;29;20204;-68
2023/04/06 08:37:49;;;;;;;13.02;11.73;;;;;;;;;;4955315;29;20204;-68
2023/04/06 08:40:17;;;;;;;11.90;10.82;;;;;;;;;;4951794;28;21212;-67
2023/04/06 08:42:50;;;;;;;12.57;11.48;;;;;;;;;;4953006;29;20211;-66
2023/04/06 08:45:21;;;;;;;16.35;13.00;;;;;;;;;;4954543;29;20198;-68
2023/04/06 08:47:52;;;;;;;12.90;11.70;;;;;;;;;;4954163;29;20242;-68
2023/04/06 08:50:20;;;;;;;23.40;11.63;;;;;;;;;;4954438;29;20640;-69
2023/04/06 08:52:50;;;;;;;12.75;11.65;;;;;;;;;;4954039;29;20674;-68
2023/04/06 08:55:18;;;;;;;12.77;11.77;;;;;;;;;;4952075;29;20214;-68
2023/04/06 08:57:47;;;;;;;13.70;12.50;;;;;;;;;;4950578;29;20223;-68
2023/04/06 09:00:16;;;;;;;13.88;12.52;;;;;;;;;;4951754;29;20669;-67
2023/04/06 09:02:45;;;;;;;16.00;12.23;;;;;;;;;;4952267;29;20284;-68
2023/04/06 09:05:15;;;;;;;13.27;11.90;;;;;;;;;;4952331;29;20623;-67
2023/04/06 09:07:43;;;;;;;14.68;13.43;;;;;;;;;;4953586;29;20207;-67
2023/04/06 09:10:12;;;;;;;12.85;11.77;;;;;;;;;;4952800;29;20411;-66
2023/04/06 09:12:40;;;;;;;14.13;12.75;;;;;;;;;;4953896;29;20204;-67
2023/04/06 09:15:19;;;;;;;16.67;12.48;;;;;;;;;;4935386;29;20216;-66
2023/04/06 09:17:48;;;;;;;13.63;12.43;;;;;;;;;;4953595;29;20200;-68
2023/04/06 09:20:25;;;;;;;12.73;11.68;;;;;;;;;;4952421;28;20227;-67
2023/04/06 09:22:53;;;;;;;14.63;13.32;;;;;;;;;;4952871;29;20206;-66
2023/04/06 09:25:22;;;;;;;14.25;13.13;;;;;;;;;;4951815;29;20226;-65
2023/04/06 09:28:00;;;;;;;15.13;13.82;;;;;;;;;;4953683;29;20210;-69
2023/04/06 09:30:28;;;;;;;15.05;13.55;;;;;;;;;;4936154;29;20214;-68
2023/04/06 09:32:57;;;;;;;13.57;12.23;;;;;;;;;;4918338;29;20707;-68
2023/04/06 09:35:29;;;;;;;14.70;13.50;;;;;;;;;;4947484;29;20556;-70
2023/04/06 09:37:57;;;;;;;17.92;13.02;;;;;;;;;;4921298;29;20667;-70
2023/04/06 09:40:25;;;;;;;14.18;13.05;;;;;;;;;;4947707;29;20207;-69
2023/04/06 09:42:57;;;;;;;14.60;13.27;;;;;;;;;;4937676;29;20234;-68
2023/04/06 09:45:25;;;;;;;14.38;13.18;;;;;;;;;;4956861;29;20571;-68
2023/04/06 09:47:56;;;;;;;13.98;12.65;;;;;;;;;;4956675;29;20224;-69
2023/04/06 09:50:26;;;;;;;13.50;12.40;;;;;;;;;;4962710;28;20196;-66
2023/04/06 09:52:56;;;;;;;16.63;13.27;;;;;;;;;;5009872;23;20296;-81
2023/04/06 09:55:28;;;;;;;14.02;12.73;;;;;;;;;;4958088;29;20216;-81
2023/04/06 09:57:59;;;;;;;17.10;15.60;;;;;;;;;;4956730;29;20216;-84
2023/04/06 10:00:29;;;;;;;15.75;14.15;;;;;;;;;;4932705;29;20220;-82
2023/04/06 10:03:00;;;;;;;16.48;13.90;;;;;;;;;;4953414;29;20285;-81
2023/04/06 10:05:32;;;;;;;13.77;12.88;;;;;;;;;;4970189;28;20292;-80
2023/04/06 10:08:07;;;;;;;14.65;13.35;;;;;;;;;;4944088;29;20235;-85
2023/04/06 10:10:35;;;;;;;15.65;14.05;;;;;;;;;;4929926;29;20209;-82
2023/04/06 10:13:03;;;;;;;16.45;14.85;;;;;;;;;;4963857;29;20188;-83
2023/04/06 10:15:32;;;;;;;14.52;13.32;;;;;;;;;;4960216;29;20682;-81
2023/04/06 10:18:01;;;;;;;16.25;14.75;;;;;;;;;;4963772;29;20220;-84
2023/04/06 10:20:31;;;;;;;15.27;14.10;;;;;;;;;;5181976;23;20293;-84
2023/04/06 10:23:07;;;;;;;14.50;13.35;;;;;;;;;;4961547;29;20244;-85
2023/04/06 10:25:39;;;;;;;17.17;13.30;;;;;;;;;;4961065;29;20218;-82
2023/04/06 10:28:08;;;;;;;14.95;13.85;;;;;;;;;;4944470;29;20250;-84
2023/04/06 10:30:43;;;;;;;13.80;12.70;;;;;;;;;;4958537;29;20233;-83
2023/04/06 10:33:15;;;;;;;13.13;12.23;;;;;;;;;;4931700;29;20295;-83
2023/04/06 10:35:43;;;;;;;14.48;13.35;;;;;;;;;;4953470;29;20623;-83
2023/04/06 10:38:14;;;;;;;15.70;12.90;;;;;;;;;;4953583;29;20260;-83
2023/04/06 10:40:44;;;;;;;14.47;13.37;;;;;;;;;;4957145;29;20603;-84
2023/04/06 10:43:20;;;;;;;14.50;13.40;;;;;;;;;;4959735;29;20629;-83
2023/04/06 10:45:56;;;;;;;15.47;12.73;;;;;;;;;;4958829;29;20648;-82
2023/04/06 10:48:26;;;;;;;13.17;12.20;;;;;;;;;;4957004;29;20605;-84
2023/04/06 10:50:56;;;;;;;12.50;11.73;;;;;;;;;;4959361;29;20628;-86
2023/04/06 10:53:24;;;;;;;15.00;13.50;;;;;;;;;;5142922;23;20694;-67
2023/04/06 10:55:55;;;;;;;14.37;13.27;;;;;;;;;;4985928;28;20613;-66
2023/04/06 10:58:26;;;;;;;13.03;12.13;;;;;;;;;;4988667;28;20589;-68
2023/04/06 11:00:55;;;;;;;12.57;11.30;;;;;;;;;;4970410;28;20603;-67
2023/04/06 11:03:23;;;;;;;13.77;12.70;;;;;;;;;;4988140;28;20603;-67
2023/04/06 11:05:52;;;;;;;13.90;12.90;;;;;;;;;;4995386;28;20585;-68
2023/04/06 11:08:30;;;;;;;13.63;12.53;;;;;;;;;;4991117;28;20975;-68
2023/04/06 11:11:10;;;;;;;32.17;13.60;;;;;;;;;;4983838;28;20658;-68
2023/04/06 11:13:39;;;;;;;13.97;12.70;;;;;;;;;;4983824;28;20994;-68
2023/04/06 11:16:08;;;;;;;13.87;12.87;;;;;;;;;;4966389;28;20729;-69
2023/04/06 11:18:36;;;;;;;13.37;12.47;;;;;;;;;;4982528;28;20679;-68
2023/04/06 11:21:05;;;;;;;13.67;12.70;;;;;;;;;;4981159;28;20725;-69
2023/04/06 11:23:33;;;;;;;14.03;13.10;;;;;;;;;;4982184;28;20717;-68
2023/04/06 11:26:02;;;;;;;13.47;12.47;;;;;;;;;;4983414;28;20726;-69
2023/04/06 11:28:32;;;;;;;14.30;13.13;;;;;;;;;;4979645;28;20749;-68
2023/04/06 11:31:00;;;;;;;14.80;13.40;;;;;;;;;;4981111;28;20676;-69
2023/04/06 11:33:30;;;;;;;12.93;12.03;;;;;;;;;;4980867;28;20714;-70
2023/04/06 11:35:58;;;;;;;13.00;11.90;;;;;;;;;;4983540;28;20710;-69
2023/04/06 11:38:27;;;;;;;13.60;12.50;;;;;;;;;;4983069;28;20671;-68
2023/04/06 11:40:55;;;;;;;14.80;13.60;;;;;;;;;;4983150;28;20702;-68
2023/04/06 11:43:28;;;;;;;15.00;13.90;;;;;;;;;;4984922;28;20691;-70
2023/04/06 11:46:03;;;;;;;14.50;13.07;;;;;;;;;;4984011;28;20660;-68
2023/04/06 11:48:31;;;;;;;13.50;12.70;;;;;;;;;;4982369;28;20691;-69
2023/04/06 11:51:00;;;;;;;13.40;12.60;;;;;;;;;;4981561;28;20709;-69
2023/04/06 11:53:29;;;;;;;13.93;12.80;;;;;;;;;;4950173;28;20712;-68
2023/04/06 11:55:59;;;;;;;13.70;12.50;;;;;;;;;;4981407;28;21201;-68
2023/04/06 11:58:27;;;;;;;13.70;12.80;;;;;;;;;;4981746;28;21231;-69
2023/04/06 12:01:04;;;;;;;13.70;12.60;;;;;;;;;;4982070;28;20740;-66
2023/04/06 12:03:34;;;;;;;13.13;12.23;;;;;;;;;;4963670;28;20996;-66
2023/04/06 12:06:03;;;;;;;14.10;13.10;;;;;;;;;;4981923;28;20657;-69
2023/04/06 12:08:32;;;;;;;23.77;14.50;;;;;;;;;;4981256;28;21296;-68
2023/04/06 12:11:00;;;;;;;13.67;12.73;;;;;;;;;;4983629;28;20766;-68
2023/04/06 12:13:28;;;;;;;13.63;12.80;;;;;;;;;;4979808;28;20694;-68
2023/04/06 12:15:56;;;;;;;15.17;13.90;;;;;;;;;;4979039;28;20690;-68
2023/04/06 12:18:25;;;;;;;14.83;13.43;;;;;;;;;;4966472;28;20674;-68
2023/04/06 12:20:54;;;;;;;14.70;13.63;;;;;;;;;;4967709;28;20646;-69
2023/04/06 12:23:23;;;;;;;14.80;13.30;;;;;;;;;;4965063;28;20624;-69
2023/04/06 12:25:51;;;;;;;15.93;14.80;;;;;;;;;;4967251;28;20625;-65
2023/04/06 12:28:22;;;;;;;15.80;14.60;;;;;;;;;;4967167;28;20663;-67
2023/04/06 12:30:52;;;;;;;15.67;14.27;;;;;;;;;;4970023;28;20695;-68
2023/04/06 12:33:20;;;;;;;15.37;13.80;;;;;;;;;;4970321;28;21392;-68
2023/04/06 12:35:49;;;;;;;15.33;14.13;;;;;;;;;;4971461;28;20689;-68
2023/04/06 12:38:20;;;;;;;15.43;14.43;;;;;;;;;;4954194;28;20703;-69
2023/04/06 12:40:48;;;;;;;14.97;13.77;;;;;;;;;;4970241;28;21092;-68
2023/04/06 12:43:16;;;;;;;14.67;13.77;;;;;;;;;;4967671;28;20740;-66
2023/04/06 12:45:45;;;;;;;14.73;13.50;;;;;;;;;;4966057;28;21253;-67
2023/04/06 12:48:14;;;;;;;15.10;14.10;;;;;;;;;;4967294;28;20658;-67
2023/04/06 12:50:42;;;;;;;14.30;13.30;;;;;;;;;;4966708;28;20689;-67
2023/04/06 12:53:11;;;;;;;13.50;12.50;;;;;;;;;;4973967;28;20688;-67
2023/04/06 12:55:40;;;;;;;14.10;12.83;;;;;;;;;;4968074;28;20607;-66
2023/04/06 12:58:09;;;;;;;14.57;13.37;;;;;;;;;;4976603;28;21171;-68
2023/04/06 13:00:37;;;;;;;14.80;13.60;;;;;;;;;;4972189;28;20694;-67
2023/04/06 13:03:06;;;;;;;13.93;12.73;;;;;;;;;;4967701;28;21043;-67
2023/04/06 13:05:34;;;;;;;13.97;13.07;;;;;;;;;;4966574;28;20670;-67
2023/04/06 13:08:03;;;;;;;15.20;14.10;;;;;;;;;;4971382;28;20715;-67
2023/04/06 13:10:32;;;;;;;13.63;12.73;;;;;;;;;;4951922;28;21083;-68
2023/04/06 13:13:02;;;;;;;13.03;12.10;;;;;;;;;;4967197;28;20694;-68
2023/04/06 13:15:30;;;;;;;12.90;12.10;;;;;;;;;;4973208;28;20709;-68
2023/04/06 13:17:59;;;;;;;11.87;10.77;;;;;;;;;;4979451;28;20623;-67
2023/04/06 13:20:27;;;;;;;13.73;12.67;;;;;;;;;;4980042;28;20725;-67
2023/04/06 13:22:56;;;;;;;13.83;12.63;;;;;;;;;;4980918;28;20694;-67
2023/04/06 13:25:24;;;;;;;13.30;12.30;;;;;;;;;;4961554;28;20701;-67
2023/04/06 13:27:52;;;;;;;13.33;11.97;;;;;;;;;;4979196;28;20717;-67
2023/04/06 13:30:22;;;;;;;12.67;11.67;;;;;;;;;;4970024;28;20700;-68
2023/04/06 13:32:50;;;;;;;13.67;12.67;;;;;;;;;;4962757;28;20726;-68
2023/04/06 13:35:19;;;;;;;12.77;11.77;;;;;;;;;;4959906;29;20702;-66
2023/04/06 13:37:48;;;;;;;13.27;12.30;;;;;;;;;;4962244;28;20695;-67
2023/04/06 13:40:16;;;;;;;13.37;12.27;;;;;;;;;;4977862;28;20685;-67
2023/04/06 13:42:45;;;;;;;12.87;11.60;;;;;;;;;;4978601;28;20714;-67
2023/04/06 13:45:14;;;;;;;14.20;13.07;;;;;;;;;;4977796;28;20718;-66
2023/04/06 13:47:44;;;;;;;13.03;12.03;;;;;;;;;;4977837;28;20663;-66
2023/04/06 13:50:12;;;;;;;12.13;11.33;;;;;;;;;;4977027;28;21247;-67
2023/04/06 13:52:41;;;;;;;12.20;11.30;;;;;;;;;;4958027;28;20646;-67
2023/04/06 13:55:10;;;;;;;13.07;12.10;;;;;;;;;;4974779;28;20622;-66
2023/04/06 13:57:38;;;;;;;12.73;11.83;;;;;;;;;;4975791;28;20614;-67
2023/04/06 14:00:07;;;;;;;12.87;12.00;;;;;;;;;;4975349;28;21095;-66
2023/04/06 14:02:35;;;;;;;12.80;11.90;;;;;;;;;;4975192;28;20695;-69
2023/04/06 14:05:05;;;;;;;13.20;12.20;;;;;;;;;;4975545;28;20697;-66
2023/04/06 14:07:33;;;;;;;14.20;13.20;;;;;;;;;;4975303;28;20649;-67
2023/04/06 14:10:02;;;;;;;11.63;10.77;;;;;;;;;;4966350;28;21251;-67
2023/04/06 14:12:31;;;;;;;12.13;11.30;;;;;;;;;;4970412;28;20635;-67
2023/04/06 14:14:59;;;;;;;12.90;12.10;;;;;;;;;;4957299;29;20622;-69
2023/04/06 14:17:28;;;;;;;13.83;12.63;;;;;;;;;;4969443;28;20639;-69
2023/04/06 14:19:56;;;;;;;14.40;13.20;;;;;;;;;;4975399;28;20650;-69
2023/04/06 14:22:26;;;;;;;13.93;12.93;;;;;;;;;;4976417;28;21343;-69
2023/04/06 14:24:54;;;;;;;14.47;13.30;;;;;;;;;;4963251;28;20778;-69
2023/04/06 14:27:22;;;;;;;12.40;11.67;;;;;;;;;;4956298;29;20620;-67
2023/04/06 14:29:51;;;;;;;13.23;12.23;;;;;;;;;;4960738;28;21027;-68
2023/04/06 14:32:19;;;;;;;13.40;12.20;;;;;;;;;;4943914;29;20610;-69
2023/04/06 14:34:47;;;;;;;13.63;12.70;;;;;;;;;;4969661;28;21255;-69
2023/04/06 14:37:17;;;;;;;12.87;11.77;;;;;;;;;;4973831;28;20698;-67
2023/04/06 14:39:46;;;;;;;13.77;12.50;;;;;;;;;;4966935;28;20691;-69
2023/04/06 14:42:15;;;;;;;13.53;12.43;;;;;;;;;;4963956;29;20686;-69
2023/04/06 14:44:45;;;;;;;14.03;12.80;;;;;;;;;;4963640;28;20768;-68